Time;durP1;ratioP1;P1;durP2;ratioP2;P2;SDS_P1;SDS_P2;PMS_P1;PMS_P2;Temp;Humidity;BMP_temperature;BMP_pressure;BME280_temperature;BME280_humidity;BME280_pressure;Samples;Min_cycle;Max_cycle;Signal;HPM_P1;HPM_P2
2021/01/26 00:00:23;;;;;;;119.63;63.08;;;;;;;;;;5036289;28;20186;-86
2021/01/26 00:02:49;;;;;;;171.23;105.65;;;;;;;;;;5035139;28;20557;-86
2021/01/26 00:05:16;;;;;;;68.93;48.90;;;;;;;;;;5036061;28;20902;-91
2021/01/26 00:07:42;;;;;;;38.55;30.38;;;;;;;;;;5039679;28;20221;-89
2021/01/26 00:10:09;;;;;;;15.25;13.65;;;;;;;;;;5041523;28;20181;-85
2021/01/26 00:12:35;;;;;;;14.25;7.45;;;;;;;;;;5035307;28;20190;-86
2021/01/26 00:15:02;;;;;;;17.88;16.13;;;;;;;;;;5052137;28;20178;-87
2021/01/26 00:17:28;;;;;;;10.18;8.55;;;;;;;;;;5044925;28;20209;-88
2021/01/26 00:19:53;;;;;;;13.75;10.85;;;;;;;;;;5050298;28;20184;-92
2021/01/26 00:22:19;;;;;;;9.20;7.90;;;;;;;;;;5036990;28;20277;-88
2021/01/26 00:24:45;;;;;;;8.18;5.90;;;;;;;;;;5042322;28;20182;-85
2021/01/26 00:27:11;;;;;;;10.45;6.30;;;;;;;;;;5034390;28;20197;-87
2021/01/26 00:29:37;;;;;;;8.52;6.20;;;;;;;;;;5029984;28;20600;-86
2021/01/26 00:32:03;;;;;;;8.10;5.55;;;;;;;;;;5030935;28;20218;-87
2021/01/26 00:34:29;;;;;;;5.72;4.78;;;;;;;;;;5030786;28;20226;-87
2021/01/26 00:36:55;;;;;;;6.90;4.53;;;;;;;;;;5032662;28;20221;-84
2021/01/26 00:39:21;;;;;;;7.55;5.38;;;;;;;;;;5022145;28;20189;-85
2021/01/26 00:41:47;;;;;;;9.48;4.63;;;;;;;;;;5016860;28;20710;-87
2021/01/26 00:44:13;;;;;;;6.45;5.65;;;;;;;;;;5027337;28;20189;-86
2021/01/26 00:46:39;;;;;;;7.05;5.35;;;;;;;;;;5035862;28;20198;-86
2021/01/26 00:49:05;;;;;;;5.28;4.78;;;;;;;;;;5023435;28;20188;-86
2021/01/26 00:51:31;;;;;;;5.55;4.90;;;;;;;;;;5035812;28;20593;-87
2021/01/26 00:53:57;;;;;;;5.55;5.00;;;;;;;;;;5034591;28;20186;-89
2021/01/26 00:56:23;;;;;;;6.05;4.90;;;;;;;;;;5032013;28;20205;-87
2021/01/26 00:58:49;;;;;;;5.70;5.05;;;;;;;;;;5033361;28;20185;-87
2021/01/26 01:01:15;;;;;;;7.35;5.60;;;;;;;;;;5030592;28;20249;-86
2021/01/26 01:03:41;;;;;;;6.50;5.72;;;;;;;;;;5024943;28;20636;-86
2021/01/26 01:06:07;;;;;;;7.13;6.00;;;;;;;;;;5035795;28;20182;-86
2021/01/26 01:08:33;;;;;;;10.20;5.32;;;;;;;;;;5037476;28;20289;-86
2021/01/26 01:10:59;;;;;;;9.73;6.40;;;;;;;;;;5025200;28;20194;-86
2021/01/26 01:13:25;;;;;;;9.60;5.53;;;;;;;;;;5012835;28;20193;-86
2021/01/26 01:15:51;;;;;;;19.58;6.25;;;;;;;;;;5020614;28;20175;-86
2021/01/26 01:18:18;;;;;;;8.45;5.88;;;;;;;;;;5029302;28;20185;-87
2021/01/26 01:20:43;;;;;;;7.38;5.90;;;;;;;;;;5020224;28;20213;-87
2021/01/26 01:23:09;;;;;;;9.85;6.35;;;;;;;;;;5039947;28;20216;-86
2021/01/26 01:25:35;;;;;;;7.70;4.88;;;;;;;;;;5029697;28;20695;-86
2021/01/26 01:28:01;;;;;;;7.60;5.60;;;;;;;;;;5024456;28;20185;-86
2021/01/26 01:30:29;;;;;;;11.23;6.65;;;;;;;;;;5016121;28;20178;-86
2021/01/26 01:32:56;;;;;;;5.10;4.60;;;;;;;;;;5035155;28;20218;-86
2021/01/26 01:35:22;;;;;;;9.80;5.97;;;;;;;;;;5015261;28;20232;-86
2021/01/26 01:37:48;;;;;;;6.03;4.35;;;;;;;;;;5023792;28;20348;-86
2021/01/26 01:40:17;;;;;;;6.13;4.05;;;;;;;;;;5024802;28;20186;-87
2021/01/26 01:42:43;;;;;;;4.70;4.30;;;;;;;;;;5025625;28;20200;-94
2021/01/26 01:45:10;;;;;;;4.35;3.92;;;;;;;;;;5031573;28;20636;-83
2021/01/26 01:47:41;;;;;;;4.47;4.07;;;;;;;;;;5017108;28;20196;-89
2021/01/26 01:50:08;;;;;;;6.00;3.67;;;;;;;;;;5020644;28;20216;-86
2021/01/26 01:52:36;;;;;;;4.57;3.97;;;;;;;;;;5038948;28;20193;-87
2021/01/26 01:55:05;;;;;;;5.60;4.38;;;;;;;;;;5016289;28;20181;-86
2021/01/26 01:57:37;;;;;;;4.82;4.07;;;;;;;;;;5020161;28;20210;-86
2021/01/26 02:00:09;;;;;;;4.35;3.85;;;;;;;;;;5038254;28;20189;-90
2021/01/26 02:02:38;;;;;;;4.25;3.60;;;;;;;;;;5038728;28;20186;-89
2021/01/26 02:05:05;;;;;;;7.72;4.10;;;;;;;;;;5031436;28;20278;-90
2021/01/26 02:07:32;;;;;;;4.60;3.95;;;;;;;;;;5032227;28;20194;-89
2021/01/26 02:09:58;;;;;;;4.78;3.40;;;;;;;;;;5031479;28;20174;-86
2021/01/26 02:12:24;;;;;;;5.15;4.63;;;;;;;;;;5037685;28;20174;-86
2021/01/26 02:14:51;;;;;;;3.90;3.50;;;;;;;;;;5038335;28;20185;-87
2021/01/26 02:17:27;;;;;;;4.05;3.60;;;;;;;;;;5019066;28;20209;-87
2021/01/26 02:20:08;;;;;;;3.60;3.30;;;;;;;;;;5033101;28;20196;-88
2021/01/26 02:22:53;;;;;;;6.00;4.13;;;;;;;;;;5038618;28;20294;-86
2021/01/26 02:25:34;;;;;;;3.28;2.88;;;;;;;;;;5026941;28;20190;-86
2021/01/26 02:28:00;;;;;;;4.47;3.33;;;;;;;;;;5022849;28;20186;-85
2021/01/26 02:30:45;;;;;;;3.53;3.23;;;;;;;;;;5023939;28;20202;-87
2021/01/26 02:33:30;;;;;;;4.10;3.78;;;;;;;;;;5052221;28;20476;-86
2021/01/26 02:36:17;;;;;;;5.35;4.13;;;;;;;;;;5037507;28;20240;-87
2021/01/26 02:38:52;;;;;;;4.60;3.13;;;;;;;;;;5037108;28;20189;-86
2021/01/26 02:41:25;;;;;;;5.88;3.53;;;;;;;;;;5058261;28;20235;-90
2021/01/26 02:44:15;;;;;;;4.13;3.35;;;;;;;;;;5047894;28;20738;-88
2021/01/26 02:46:51;;;;;;;5.38;3.63;;;;;;;;;;5032025;28;20224;-89
2021/01/26 02:49:20;;;;;;;4.80;3.15;;;;;;;;;;5042796;28;20652;-87
2021/01/26 02:52:01;;;;;;;3.60;3.22;;;;;;;;;;5043144;28;20181;-87
2021/01/26 02:54:27;;;;;;;4.03;3.25;;;;;;;;;;5042489;28;20245;-86
2021/01/26 02:56:53;;;;;;;6.00;3.27;;;;;;;;;;5038173;28;20245;-85
2021/01/26 02:59:31;;;;;;;3.08;2.67;;;;;;;;;;5033844;28;21012;-87
2021/01/26 03:02:06;;;;;;;5.72;3.63;;;;;;;;;;5043401;28;20235;-85
2021/01/26 03:04:38;;;;;;;6.05;3.65;;;;;;;;;;5047655;28;20186;-92
2021/01/26 03:07:05;;;;;;;4.22;3.50;;;;;;;;;;5046463;28;20273;-87
2021/01/26 03:09:40;;;;;;;4.13;3.10;;;;;;;;;;5040000;28;20183;-90
2021/01/26 03:12:29;;;;;;;10.77;3.58;;;;;;;;;;5050304;28;20200;-87
2021/01/26 03:15:00;;;;;;;5.45;3.35;;;;;;;;;;5035834;28;20197;-85
2021/01/26 03:17:33;;;;;;;4.35;3.67;;;;;;;;;;5034766;28;20201;-90
2021/01/26 03:20:02;;;;;;;4.55;3.20;;;;;;;;;;5042897;28;20593;-87
2021/01/26 03:22:28;;;;;;;5.78;4.10;;;;;;;;;;5046681;28;20201;-86
2021/01/26 03:24:55;;;;;;;4.20;3.30;;;;;;;;;;5048184;28;20264;-85
2021/01/26 03:27:28;;;;;;;5.10;4.05;;;;;;;;;;5038977;28;20261;-89
2021/01/26 03:29:55;;;;;;;3.85;3.08;;;;;;;;;;5046738;28;20270;-86
2021/01/26 03:32:31;;;;;;;4.05;3.17;;;;;;;;;;5049648;28;20232;-86
2021/01/26 03:34:57;;;;;;;3.47;3.17;;;;;;;;;;5055759;28;20181;-86
2021/01/26 03:37:23;;;;;;;3.95;3.55;;;;;;;;;;5046379;28;20202;-86
2021/01/26 03:39:49;;;;;;;3.20;2.60;;;;;;;;;;5048600;28;20181;-88
2021/01/26 03:42:15;;;;;;;3.63;3.33;;;;;;;;;;5051100;28;20183;-86
2021/01/26 03:44:41;;;;;;;4.22;3.83;;;;;;;;;;5037218;28;20215;-86
2021/01/26 03:47:22;;;;;;;2.92;2.65;;;;;;;;;;5039157;28;20189;-86
2021/01/26 03:49:48;;;;;;;3.75;3.15;;;;;;;;;;5039650;28;20185;-87
2021/01/26 03:52:29;;;;;;;4.53;4.13;;;;;;;;;;5031909;28;20206;-86
2021/01/26 03:55:02;;;;;;;4.07;3.65;;;;;;;;;;5030361;28;20421;-85
2021/01/26 03:57:47;;;;;;;2.72;2.53;;;;;;;;;;5040517;28;20297;-86
2021/01/26 04:00:18;;;;;;;3.90;3.00;;;;;;;;;;5051718;28;20190;-86
2021/01/26 04:03:03;;;;;;;3.75;2.50;;;;;;;;;;5035405;28;20213;-86
2021/01/26 04:05:38;;;;;;;6.57;3.38;;;;;;;;;;5033843;28;20186;-86
2021/01/26 04:08:16;;;;;;;4.18;3.05;;;;;;;;;;5045853;28;20229;-85
2021/01/26 04:11:00;;;;;;;2.60;2.30;;;;;;;;;;5045935;28;20573;-86
2021/01/26 04:13:30;;;;;;;4.35;3.35;;;;;;;;;;5051851;28;20496;-85
2021/01/26 04:15:58;;;;;;;3.75;2.60;;;;;;;;;;5046257;28;20201;-85
2021/01/26 04:18:33;;;;;;;6.72;2.72;;;;;;;;;;5041674;28;20204;-86
2021/01/26 04:20:59;;;;;;;3.50;2.38;;;;;;;;;;5036676;28;20201;-86
2021/01/26 04:23:27;;;;;;;4.32;2.72;;;;;;;;;;5026514;28;20194;-86
2021/01/26 04:25:54;;;;;;;8.18;3.10;;;;;;;;;;5039514;28;20181;-89
2021/01/26 04:28:44;;;;;;;3.03;2.80;;;;;;;;;;5037121;28;20228;-87
2021/01/26 04:31:11;;;;;;;10.02;3.10;;;;;;;;;;5043196;28;20182;-86
2021/01/26 04:33:37;;;;;;;3.67;3.15;;;;;;;;;;5044480;28;20182;-87
2021/01/26 04:36:04;;;;;;;6.13;4.45;;;;;;;;;;5039872;28;20197;-86
2021/01/26 04:38:30;;;;;;;6.45;2.53;;;;;;;;;;5020445;28;20194;-86
2021/01/26 04:40:58;;;;;;;3.63;3.33;;;;;;;;;;5041775;28;20239;-85
2021/01/26 04:43:39;;;;;;;5.22;3.33;;;;;;;;;;5039971;28;20183;-86
2021/01/26 04:46:29;;;;;;;5.63;3.28;;;;;;;;;;5031936;28;20258;-86
2021/01/26 04:49:14;;;;;;;4.45;2.90;;;;;;;;;;5025313;28;20186;-86
2021/01/26 04:51:43;;;;;;;3.65;3.35;;;;;;;;;;5033917;28;20175;-86
2021/01/26 04:54:24;;;;;;;4.15;3.22;;;;;;;;;;5026603;28;20259;-86
2021/01/26 04:57:09;;;;;;;4.10;3.00;;;;;;;;;;5019898;28;20201;-86
2021/01/26 04:59:57;;;;;;;4.55;3.45;;;;;;;;;;5017062;28;20186;-85
2021/01/26 05:02:27;;;;;;;7.72;3.05;;;;;;;;;;5015070;28;20217;-86
2021/01/26 05:04:56;;;;;;;4.28;2.75;;;;;;;;;;5040057;28;20174;-86
2021/01/26 05:07:37;;;;;;;3.55;2.85;;;;;;;;;;5027274;28;20194;-86
2021/01/26 05:10:06;;;;;;;3.30;3.00;;;;;;;;;;5022047;28;20189;-86
2021/01/26 05:12:43;;;;;;;4.45;2.60;;;;;;;;;;5024820;28;20185;-86
2021/01/26 05:15:11;;;;;;;4.47;3.20;;;;;;;;;;5039583;28;20239;-86
2021/01/26 05:17:42;;;;;;;4.80;3.15;;;;;;;;;;5024168;28;20296;-84
2021/01/26 05:20:14;;;;;;;3.92;3.10;;;;;;;;;;5040399;28;20178;-86
2021/01/26 05:22:49;;;;;;;3.75;2.92;;;;;;;;;;5025201;28;20197;-86
2021/01/26 05:25:17;;;;;;;5.28;2.70;;;;;;;;;;5038091;28;20182;-86
2021/01/26 05:27:43;;;;;;;5.00;3.47;;;;;;;;;;5025747;28;20174;-86
2021/01/26 05:30:12;;;;;;;4.72;2.92;;;;;;;;;;5020920;28;20174;-85
2021/01/26 05:32:42;;;;;;;6.32;3.58;;;;;;;;;;5030931;28;20218;-85
2021/01/26 05:35:08;;;;;;;3.30;2.72;;;;;;;;;;5039126;28;20182;-86
2021/01/26 05:37:34;;;;;;;4.28;2.80;;;;;;;;;;5051779;28;20277;-86
2021/01/26 05:40:03;;;;;;;3.95;3.20;;;;;;;;;;5038999;28;20189;-84
2021/01/26 05:42:31;;;;;;;3.03;2.72;;;;;;;;;;5038096;28;20189;-85
2021/01/26 05:44:58;;;;;;;4.13;3.00;;;;;;;;;;5049049;28;20189;-85
2021/01/26 05:47:24;;;;;;;3.25;2.95;;;;;;;;;;5040390;28;20679;-86
2021/01/26 05:49:51;;;;;;;3.37;2.80;;;;;;;;;;5038703;28;20194;-83
2021/01/26 05:52:17;;;;;;;2.20;2.00;;;;;;;;;;5028440;28;20456;-86
2021/01/26 05:54:54;;;;;;;4.32;2.72;;;;;;;;;;5042104;28;20200;-86
2021/01/26 05:57:25;;;;;;;5.45;2.90;;;;;;;;;;5035483;28;20409;-86
2021/01/26 05:59:51;;;;;;;3.03;2.72;;;;;;;;;;5055710;28;20186;-86
2021/01/26 06:02:20;;;;;;;6.22;2.85;;;;;;;;;;5038321;28;20178;-85
2021/01/26 06:04:46;;;;;;;3.20;2.90;;;;;;;;;;5053604;28;20675;-88
2021/01/26 06:07:19;;;;;;;4.68;2.97;;;;;;;;;;5030597;28;20205;-84
2021/01/26 06:09:45;;;;;;;3.40;2.45;;;;;;;;;;5042119;28;20245;-85
2021/01/26 06:12:11;;;;;;;4.05;2.60;;;;;;;;;;5034093;28;20201;-86
2021/01/26 06:14:38;;;;;;;3.85;2.72;;;;;;;;;;5034358;28;20190;-84
2021/01/26 06:17:18;;;;;;;8.30;3.47;;;;;;;;;;5039489;28;20210;-85
2021/01/26 06:19:44;;;;;;;3.45;3.15;;;;;;;;;;5038250;28;20543;-85
2021/01/26 06:22:22;;;;;;;6.25;4.25;;;;;;;;;;5029582;28;20246;-85
2021/01/26 06:24:48;;;;;;;6.20;5.15;;;;;;;;;;5040982;28;20217;-85
2021/01/26 06:27:14;;;;;;;7.30;5.55;;;;;;;;;;5037634;28;20209;-85
2021/01/26 06:29:56;;;;;;;9.48;4.85;;;;;;;;;;5038850;28;20197;-85
2021/01/26 06:32:28;;;;;;;6.60;4.13;;;;;;;;;;5039499;28;20231;-85
2021/01/26 06:35:15;;;;;;;5.57;5.03;;;;;;;;;;5038450;28;20188;-85
2021/01/26 06:38:01;;;;;;;7.30;4.60;;;;;;;;;;5028979;28;20202;-85
2021/01/26 06:40:47;;;;;;;5.40;4.32;;;;;;;;;;5022381;28;20264;-84
2021/01/26 06:43:22;;;;;;;6.57;4.68;;;;;;;;;;5023214;28;20194;-84
2021/01/26 06:45:56;;;;;;;4.20;3.80;;;;;;;;;;5025196;28;20192;-84
2021/01/26 06:48:21;;;;;;;6.30;4.78;;;;;;;;;;5026034;28;20189;-84
2021/01/26 06:50:47;;;;;;;5.87;4.20;;;;;;;;;;5039748;28;20183;-83
2021/01/26 06:53:46;;;;;;;5.37;4.20;;;;;;;;;;5042121;28;20428;-84
2021/01/26 06:56:24;;;;;;;6.72;3.70;;;;;;;;;;4944936;28;20464;-84
2021/01/26 06:58:50;;;;;;;5.10;3.65;;;;;;;;;;4970184;28;20626;-84
2021/01/26 07:01:27;;;;;;;5.00;4.07;;;;;;;;;;4963426;28;20215;-83
2021/01/26 07:04:12;;;;;;;7.47;4.38;;;;;;;;;;4962826;28;20513;-83
2021/01/26 07:06:53;;;;;;;6.72;3.60;;;;;;;;;;4963173;28;20197;-83
2021/01/26 07:09:34;;;;;;;6.95;4.32;;;;;;;;;;4962753;28;20203;-83
2021/01/26 07:12:19;;;;;;;8.50;5.75;;;;;;;;;;4964854;28;20219;-82
2021/01/26 07:14:45;;;;;;;5.90;4.63;;;;;;;;;;4950378;28;20192;-83
2021/01/26 07:17:15;;;;;;;7.10;4.72;;;;;;;;;;4953579;29;20215;-84
2021/01/26 07:19:47;;;;;;;4.90;4.28;;;;;;;;;;4951802;28;20232;-83
2021/01/26 07:22:19;;;;;;;3.88;3.58;;;;;;;;;;4957336;28;20263;-83
2021/01/26 07:24:50;;;;;;;9.38;4.63;;;;;;;;;;4971920;28;20190;-83
2021/01/26 07:27:16;;;;;;;6.50;5.32;;;;;;;;;;4944418;29;20283;-82
2021/01/26 07:29:48;;;;;;;6.67;4.80;;;;;;;;;;4941016;28;20736;-83
2021/01/26 07:32:32;;;;;;;4.28;3.88;;;;;;;;;;5006614;28;20524;-83
2021/01/26 07:35:01;;;;;;;5.53;4.70;;;;;;;;;;5023913;28;20177;-83
2021/01/26 07:37:35;;;;;;;5.18;4.30;;;;;;;;;;5041787;28;20210;-83
2021/01/26 07:40:06;;;;;;;5.97;4.07;;;;;;;;;;5029491;28;20166;-83
2021/01/26 07:42:35;;;;;;;6.43;4.50;;;;;;;;;;5021451;28;20171;-83
2021/01/26 07:45:28;;;;;;;6.78;4.00;;;;;;;;;;5034505;28;20186;-83
2021/01/26 07:48:18;;;;;;;6.97;4.57;;;;;;;;;;5017800;28;20196;-83
2021/01/26 07:50:49;;;;;;;6.88;5.20;;;;;;;;;;5022044;28;20325;-83
2021/01/26 07:53:40;;;;;;;9.38;5.30;;;;;;;;;;5023584;28;20617;-83
2021/01/26 07:56:11;;;;;;;5.72;4.65;;;;;;;;;;5028500;28;20213;-82
2021/01/26 07:58:38;;;;;;;6.57;4.15;;;;;;;;;;5026199;28;20225;-86
2021/01/26 08:01:04;;;;;;;8.93;4.75;;;;;;;;;;5033097;28;20245;-86
2021/01/26 08:03:30;;;;;;;8.48;4.93;;;;;;;;;;5024495;28;20183;-84
2021/01/26 08:05:58;;;;;;;5.00;4.50;;;;;;;;;;5018461;28;20185;-86
2021/01/26 08:08:35;;;;;;;5.80;5.25;;;;;;;;;;5034496;28;20186;-84
2021/01/26 08:11:20;;;;;;;8.20;5.05;;;;;;;;;;5015288;28;20516;-86
2021/01/26 08:13:54;;;;;;;7.95;5.47;;;;;;;;;;5028310;28;20186;-84
2021/01/26 08:16:31;;;;;;;9.38;5.38;;;;;;;;;;5014067;28;20206;-85
2021/01/26 08:18:57;;;;;;;5.80;4.60;;;;;;;;;;5022832;28;20192;-85
2021/01/26 08:21:31;;;;;;;7.80;5.75;;;;;;;;;;5024533;28;20244;-85
2021/01/26 08:24:12;;;;;;;7.28;4.70;;;;;;;;;;5036721;28;20197;-84
2021/01/26 08:26:39;;;;;;;11.43;6.00;;;;;;;;;;5040045;28;20190;-85
2021/01/26 08:29:05;;;;;;;18.20;7.32;;;;;;;;;;5032624;28;20186;-86
2021/01/26 08:31:32;;;;;;;7.50;5.85;;;;;;;;;;5040141;28;20272;-86
2021/01/26 08:34:17;;;;;;;12.95;7.40;;;;;;;;;;5045088;28;20183;-86
2021/01/26 08:36:43;;;;;;;12.52;6.18;;;;;;;;;;5032890;28;20226;-87
2021/01/26 08:39:16;;;;;;;11.25;6.65;;;;;;;;;;5051654;28;20192;-86
2021/01/26 08:41:48;;;;;;;9.23;5.82;;;;;;;;;;5040157;28;20258;-86
2021/01/26 08:44:20;;;;;;;12.40;6.78;;;;;;;;;;5045504;28;20223;-87
2021/01/26 08:46:46;;;;;;;8.45;6.80;;;;;;;;;;5043446;28;20186;-87
2021/01/26 08:49:32;;;;;;;6.85;5.53;;;;;;;;;;5026497;28;20479;-87
2021/01/26 08:52:17;;;;;;;5.30;4.60;;;;;;;;;;5038848;28;20192;-87
2021/01/26 08:54:44;;;;;;;6.05;5.13;;;;;;;;;;5030733;28;20186;-87
2021/01/26 08:57:28;;;;;;;5.15;4.65;;;;;;;;;;5034164;28;20257;-85
2021/01/26 08:59:55;;;;;;;7.10;6.00;;;;;;;;;;5032790;28;20189;-87
2021/01/26 09:02:30;;;;;;;9.57;4.95;;;;;;;;;;5054334;28;20202;-88
2021/01/26 09:04:56;;;;;;;5.80;4.45;;;;;;;;;;5037316;28;20200;-87
2021/01/26 09:07:41;;;;;;;6.97;4.97;;;;;;;;;;5040145;28;20186;-88
2021/01/26 09:10:08;;;;;;;7.13;5.22;;;;;;;;;;5039704;28;20181;-88
2021/01/26 09:12:35;;;;;;;8.50;5.15;;;;;;;;;;5042237;28;20190;-89
2021/01/26 09:15:02;;;;;;;8.10;5.30;;;;;;;;;;5048193;28;20186;-88
2021/01/26 09:17:30;;;;;;;9.93;6.38;;;;;;;;;;5039346;28;20209;-89
2021/01/26 09:20:08;;;;;;;8.75;5.57;;;;;;;;;;5029952;28;20185;-89
2021/01/26 09:22:34;;;;;;;6.40;5.45;;;;;;;;;;5049585;28;20174;-88
2021/01/26 09:25:04;;;;;;;7.03;4.65;;;;;;;;;;5043955;28;20174;-88
2021/01/26 09:27:35;;;;;;;5.30;3.85;;;;;;;;;;5038886;28;20177;-88
2021/01/26 09:30:21;;;;;;;5.13;3.90;;;;;;;;;;5035994;28;20193;-88
2021/01/26 09:32:58;;;;;;;4.43;4.00;;;;;;;;;;5031280;28;20231;-90
2021/01/26 09:35:44;;;;;;;5.88;3.55;;;;;;;;;;5046525;28;20250;-88
2021/01/26 09:38:15;;;;;;;3.35;2.40;;;;;;;;;;5027664;28;20272;-89
2021/01/26 09:40:45;;;;;;;2.75;2.30;;;;;;;;;;5047504;28;20202;-92
2021/01/26 09:43:15;;;;;;;2.85;2.55;;;;;;;;;;5041561;28;20192;-86
2021/01/26 09:45:41;;;;;;;4.72;3.55;;;;;;;;;;5041764;28;20174;-93
2021/01/26 09:48:08;;;;;;;5.40;3.33;;;;;;;;;;5034814;28;20637;-89
2021/01/26 09:50:35;;;;;;;3.85;3.30;;;;;;;;;;5035611;28;20190;-89
2021/01/26 09:53:02;;;;;;;3.38;3.05;;;;;;;;;;5041279;28;20190;-89
2021/01/26 09:55:29;;;;;;;5.00;3.03;;;;;;;;;;5050960;28;20209;-89
2021/01/26 09:57:56;;;;;;;4.63;3.60;;;;;;;;;;5050403;28;20206;-88
2021/01/26 10:00:23;;;;;;;6.95;3.10;;;;;;;;;;5040083;28;20165;-91
2021/01/26 10:02:53;;;;;;;4.75;3.30;;;;;;;;;;5037077;28;20188;-93
2021/01/26 10:05:20;;;;;;;4.03;3.45;;;;;;;;;;5046920;28;20451;-92
2021/01/26 10:08:03;;;;;;;4.00;3.25;;;;;;;;;;5030580;28;20192;-91
2021/01/26 10:10:30;;;;;;;3.95;3.13;;;;;;;;;;5051596;28;20190;-91
2021/01/26 10:12:56;;;;;;;4.60;3.42;;;;;;;;;;5045211;28;20202;-91
2021/01/26 10:15:29;;;;;;;3.65;3.35;;;;;;;;;;5036583;28;20559;-92
2021/01/26 10:18:03;;;;;;;5.78;3.75;;;;;;;;;;5034107;28;20926;-92
2021/01/26 10:20:38;;;;;;;3.53;3.22;;;;;;;;;;5039013;28;20196;-90
2021/01/26 10:23:05;;;;;;;4.85;3.55;;;;;;;;;;5040010;28;20650;-90
2021/01/26 10:25:32;;;;;;;6.03;4.22;;;;;;;;;;5039853;28;20182;-93
2021/01/26 10:28:12;;;;;;;5.72;4.78;;;;;;;;;;5035528;28;20391;-90
2021/01/26 10:30:48;;;;;;;7.28;3.95;;;;;;;;;;5041801;28;20193;-93
2021/01/26 10:33:33;;;;;;;8.32;4.60;;;;;;;;;;5053486;28;20221;-90
2021/01/26 10:36:19;;;;;;;9.80;4.15;;;;;;;;;;5035576;28;20191;-87
2021/01/26 10:38:45;;;;;;;3.88;3.50;;;;;;;;;;5033400;28;20187;-91
2021/01/26 10:41:18;;;;;;;6.88;3.70;;;;;;;;;;5041133;28;20249;-91
2021/01/26 10:43:44;;;;;;;4.30;3.90;;;;;;;;;;5041059;28;20636;-92
2021/01/26 10:46:15;;;;;;;4.65;3.63;;;;;;;;;;5044627;28;20182;-90
2021/01/26 10:48:47;;;;;;;5.97;4.30;;;;;;;;;;5045070;28;20188;-92
2021/01/26 10:51:15;;;;;;;5.60;3.95;;;;;;;;;;5037490;28;20174;-90
2021/01/26 10:53:45;;;;;;;7.18;3.88;;;;;;;;;;5036505;28;20182;-90
2021/01/26 10:56:12;;;;;;;6.90;5.53;;;;;;;;;;5030004;28;20215;-87
2021/01/26 10:58:40;;;;;;;6.95;4.82;;;;;;;;;;5049596;28;20186;-90
2021/01/26 11:01:06;;;;;;;6.50;5.30;;;;;;;;;;5035154;28;20175;-88
2021/01/26 11:03:32;;;;;;;10.52;5.45;;;;;;;;;;5040234;28;20223;-89
2021/01/26 11:05:58;;;;;;;8.23;5.10;;;;;;;;;;5036969;28;20193;-89
2021/01/26 11:08:24;;;;;;;5.90;4.38;;;;;;;;;;5036065;28;20186;-89
2021/01/26 11:10:50;;;;;;;10.57;4.82;;;;;;;;;;5047629;28;20181;-93
2021/01/26 11:13:16;;;;;;;6.17;4.40;;;;;;;;;;5043906;28;20202;-87
2021/01/26 11:15:42;;;;;;;10.45;5.03;;;;;;;;;;5040777;28;20417;-87
2021/01/26 11:18:08;;;;;;;6.03;4.18;;;;;;;;;;5036546;28;20201;-89
2021/01/26 11:20:34;;;;;;;7.10;4.50;;;;;;;;;;5041258;28;20190;-87
2021/01/26 11:23:00;;;;;;;5.63;3.80;;;;;;;;;;5031048;28;20224;-89
2021/01/26 11:25:27;;;;;;;6.72;4.90;;;;;;;;;;5030261;28;20182;-87
2021/01/26 11:27:53;;;;;;;7.25;4.40;;;;;;;;;;5038169;28;20182;-87
2021/01/26 11:30:20;;;;;;;8.35;5.50;;;;;;;;;;5053398;28;20185;-89
2021/01/26 11:32:46;;;;;;;6.70;3.63;;;;;;;;;;5032718;28;20235;-89
2021/01/26 11:35:13;;;;;;;5.30;4.13;;;;;;;;;;5025171;28;20188;-91
2021/01/26 11:37:39;;;;;;;15.73;4.00;;;;;;;;;;5027586;28;20216;-88
2021/01/26 11:40:06;;;;;;;3.45;3.15;;;;;;;;;;5041679;28;20177;-91
2021/01/26 11:42:32;;;;;;;7.78;4.10;;;;;;;;;;5023513;28;20186;-90
2021/01/26 11:44:58;;;;;;;6.47;3.20;;;;;;;;;;5040875;28;20324;-91
2021/01/26 11:47:24;;;;;;;5.65;4.45;;;;;;;;;;5021330;28;20313;-89
2021/01/26 11:49:50;;;;;;;5.82;5.00;;;;;;;;;;5013942;28;20192;-91
2021/01/26 11:52:16;;;;;;;7.13;4.40;;;;;;;;;;5042461;28;20501;-90
2021/01/26 11:54:42;;;;;;;5.85;5.25;;;;;;;;;;5036916;28;20175;-90
2021/01/26 11:57:08;;;;;;;6.28;5.50;;;;;;;;;;5023255;28;20678;-93
2021/01/26 11:59:36;;;;;;;5.35;4.70;;;;;;;;;;5024288;28;20186;-88
2021/01/26 12:02:02;;;;;;;5.68;4.03;;;;;;;;;;5028099;28;20178;-90
2021/01/26 12:04:28;;;;;;;7.20;4.93;;;;;;;;;;5030185;28;20204;-89
2021/01/26 12:06:54;;;;;;;4.38;3.95;;;;;;;;;;5020895;28;20201;-89
2021/01/26 12:09:20;;;;;;;4.65;3.53;;;;;;;;;;5024113;28;20399;-87
2021/01/26 12:11:45;;;;;;;4.15;3.60;;;;;;;;;;5039915;28;20194;-95
2021/01/26 12:14:12;;;;;;;7.20;3.78;;;;;;;;;;5023039;28;20551;-91
2021/01/26 12:16:37;;;;;;;5.35;3.78;;;;;;;;;;5037219;28;20270;-91
2021/01/26 12:19:03;;;;;;;8.18;4.45;;;;;;;;;;5034786;28;20209;-90
2021/01/26 12:21:30;;;;;;;5.13;3.40;;;;;;;;;;5022043;28;20175;-89
2021/01/26 12:23:56;;;;;;;4.05;3.65;;;;;;;;;;5036637;28;20210;-87
2021/01/26 12:26:22;;;;;;;4.97;3.10;;;;;;;;;;5012618;28;20183;-85
2021/01/26 12:28:48;;;;;;;7.05;3.25;;;;;;;;;;5034301;28;20446;-92
2021/01/26 12:31:14;;;;;;;5.05;4.15;;;;;;;;;;5032127;28;20463;-89
2021/01/26 12:33:40;;;;;;;7.03;3.75;;;;;;;;;;5026124;28;20198;-85
2021/01/26 12:36:06;;;;;;;4.10;3.70;;;;;;;;;;5031276;28;20189;-86
2021/01/26 12:38:32;;;;;;;6.88;3.70;;;;;;;;;;5038450;28;20193;-86
2021/01/26 12:40:59;;;;;;;9.32;4.30;;;;;;;;;;5020581;28;20198;-87
2021/01/26 12:43:25;;;;;;;6.45;3.30;;;;;;;;;;5032862;28;20254;-89
2021/01/26 12:45:51;;;;;;;5.32;2.60;;;;;;;;;;5044771;28;20189;-89
2021/01/26 12:48:17;;;;;;;5.95;3.63;;;;;;;;;;5023124;28;20186;-89
2021/01/26 12:50:46;;;;;;;3.50;2.83;;;;;;;;;;5040869;28;20190;-88
2021/01/26 12:53:12;;;;;;;6.97;3.75;;;;;;;;;;5041045;28;20186;-89
2021/01/26 12:55:39;;;;;;;4.47;3.38;;;;;;;;;;5040399;28;20250;-89
2021/01/26 12:58:05;;;;;;;6.47;3.38;;;;;;;;;;5016563;28;20202;-89
2021/01/26 13:00:31;;;;;;;4.30;3.33;;;;;;;;;;5021455;28;20217;-89
2021/01/26 13:02:58;;;;;;;9.80;4.50;;;;;;;;;;5033537;28;20190;-89
2021/01/26 13:05:25;;;;;;;5.50;4.07;;;;;;;;;;5034641;28;20232;-83
2021/01/26 13:07:51;;;;;;;5.95;3.75;;;;;;;;;;5029737;28;20666;-88
2021/01/26 13:10:18;;;;;;;5.78;4.28;;;;;;;;;;5024510;28;20222;-91
2021/01/26 13:12:44;;;;;;;6.05;3.40;;;;;;;;;;5021941;28;20715;-90
2021/01/26 13:15:11;;;;;;;5.38;3.58;;;;;;;;;;5035812;28;20198;-85
2021/01/26 13:17:37;;;;;;;4.43;3.60;;;;;;;;;;5016427;28;20270;-86
2021/01/26 13:20:06;;;;;;;4.38;3.40;;;;;;;;;;5013513;28;20189;-88
2021/01/26 13:22:33;;;;;;;4.55;3.83;;;;;;;;;;5037543;28;20178;-89
2021/01/26 13:24:59;;;;;;;4.90;3.95;;;;;;;;;;5033480;28;20174;-89
2021/01/26 13:27:25;;;;;;;5.75;4.03;;;;;;;;;;5022777;28;20200;-90
2021/01/26 13:29:54;;;;;;;7.00;4.22;;;;;;;;;;5023758;28;20253;-88
2021/01/26 13:32:21;;;;;;;7.55;4.75;;;;;;;;;;5018644;28;20224;-89
2021/01/26 13:34:50;;;;;;;7.82;4.20;;;;;;;;;;5019291;28;20253;-90
2021/01/26 13:37:16;;;;;;;7.05;4.57;;;;;;;;;;5016956;28;20288;-89
2021/01/26 13:39:44;;;;;;;5.10;3.85;;;;;;;;;;5033717;28;20188;-89
2021/01/26 13:42:16;;;;;;;5.30;4.53;;;;;;;;;;5021882;28;20182;-88
2021/01/26 13:44:47;;;;;;;5.38;4.35;;;;;;;;;;5021945;28;20181;-90
2021/01/26 13:47:14;;;;;;;6.53;4.07;;;;;;;;;;5008098;28;20533;-86
2021/01/26 13:49:43;;;;;;;4.68;4.05;;;;;;;;;;5029522;28;20186;-88
2021/01/26 13:52:09;;;;;;;7.50;4.63;;;;;;;;;;5024198;28;20243;-88
2021/01/26 13:54:35;;;;;;;6.68;4.60;;;;;;;;;;5020932;28;20190;-87
2021/01/26 13:57:01;;;;;;;5.80;4.32;;;;;;;;;;5034262;28;20202;-90
2021/01/26 13:59:28;;;;;;;6.30;4.60;;;;;;;;;;5019758;28;20201;-91
2021/01/26 14:01:57;;;;;;;5.15;4.40;;;;;;;;;;5027901;28;20774;-93
2021/01/26 14:04:23;;;;;;;5.13;4.68;;;;;;;;;;5035796;28;20276;-88
2021/01/26 14:09:42;;;;;;;6.35;5.50;;;;;;;;;;5039263;28;20219;-93
2021/01/26 14:12:08;;;;;;;4.82;4.32;;;;;;;;;;5037353;28;20186;-92
2021/01/26 14:14:35;;;;;;;7.38;4.30;;;;;;;;;;5037094;28;20272;-91
2021/01/26 14:17:01;;;;;;;8.40;4.70;;;;;;;;;;5035149;28;20663;-91
2021/01/26 14:19:33;;;;;;;6.97;5.05;;;;;;;;;;5028804;28;20202;-90
2021/01/26 14:21:59;;;;;;;5.13;4.10;;;;;;;;;;5022963;28;20593;-88
2021/01/26 14:24:25;;;;;;;8.23;3.95;;;;;;;;;;5024168;28;20187;-89
2021/01/26 14:26:51;;;;;;;5.20;3.63;;;;;;;;;;5036199;28;20253;-92
2021/01/26 14:29:35;;;;;;;5.03;3.88;;;;;;;;;;5016906;28;20198;-87
2021/01/26 14:32:07;;;;;;;5.05;4.60;;;;;;;;;;5021216;28;20289;-90
2021/01/26 14:34:46;;;;;;;9.20;4.20;;;;;;;;;;5048497;28;20187;-90
2021/01/26 14:37:15;;;;;;;5.45;3.97;;;;;;;;;;5037422;28;20300;-91
2021/01/26 14:39:42;;;;;;;7.05;3.58;;;;;;;;;;5042454;28;20205;-88
2021/01/26 14:42:14;;;;;;;4.68;3.40;;;;;;;;;;5052388;28;20635;-91
2021/01/26 14:44:41;;;;;;;3.72;3.00;;;;;;;;;;5036317;28;20244;-88
2021/01/26 14:47:07;;;;;;;5.18;3.17;;;;;;;;;;5040740;28;20185;-88
2021/01/26 14:49:33;;;;;;;4.55;3.53;;;;;;;;;;5038070;28;20225;-89
2021/01/26 14:52:02;;;;;;;6.20;3.28;;;;;;;;;;5037752;28;20210;-90
2021/01/26 14:54:31;;;;;;;7.30;3.67;;;;;;;;;;5044108;28;20193;-92
2021/01/26 14:57:11;;;;;;;5.07;3.50;;;;;;;;;;5041312;28;20202;-90
2021/01/26 14:59:38;;;;;;;10.35;4.80;;;;;;;;;;5055958;28;20189;-89
2021/01/26 15:02:04;;;;;;;7.90;3.80;;;;;;;;;;5039392;28;20185;-89